Time;durP1;ratioP1;P1;durP2;ratioP2;P2;SDS_P1;SDS_P2;PMS_P1;PMS_P2;Temp;Humidity;BMP_temperature;BMP_pressure;BME280_temperature;BME280_humidity;BME280_pressure;Samples;Min_cycle;Max_cycle;Signal;HPM_P1;HPM_P2
2023/04/02 00:01:49;;;;;;;0.70;0.70;;;5.90;99.90;;;;;;5012759;28;20053;-83
2023/04/02 00:04:25;;;;;;;0.70;0.70;;;5.90;99.90;;;;;;5010637;28;20151;-82
2023/04/02 00:07:37;;;;;;;0.73;0.73;;;5.90;99.90;;;;;;5014382;28;20051;-83
2023/04/02 00:10:04;;;;;;;0.70;0.70;;;5.90;99.90;;;;;;5014626;28;20056;-82
2023/04/02 00:12:30;;;;;;;0.70;0.70;;;5.80;99.90;;;;;;5012543;28;20037;-83
2023/04/02 00:14:57;;;;;;;0.60;0.60;;;5.80;99.90;;;;;;5031143;28;20038;-83
2023/04/02 00:17:24;;;;;;;0.65;0.65;;;5.80;99.90;;;;;;4994220;28;20047;-82
2023/04/02 00:20:05;;;;;;;0.70;0.70;;;5.70;99.90;;;;;;5010257;28;20044;-82
2023/04/02 00:22:32;;;;;;;0.70;0.70;;;5.70;99.90;;;;;;5025855;28;20039;-82
2023/04/02 00:25:02;;;;;;;0.70;0.70;;;5.60;99.90;;;;;;5020053;28;20601;-82
2023/04/02 00:27:30;;;;;;;0.70;0.70;;;5.60;99.90;;;;;;5015980;28;20061;-83
2023/04/02 00:29:59;;;;;;;0.70;0.70;;;5.60;99.90;;;;;;5016442;28;20114;-83
2023/04/02 00:32:31;;;;;;;0.70;0.70;;;5.60;99.90;;;;;;5020190;28;20118;-83
2023/04/02 00:34:58;;;;;;;0.70;0.70;;;5.60;99.90;;;;;;5024367;28;20047;-83
2023/04/02 00:37:28;;;;;;;0.70;0.70;;;5.50;99.90;;;;;;4999636;28;20609;-83
2023/04/02 00:40:01;;;;;;;0.70;0.70;;;5.50;99.90;;;;;;5004297;28;20056;-82
2023/04/02 00:42:30;;;;;;;0.80;0.80;;;5.50;99.90;;;;;;4999767;28;20106;-82
2023/04/02 00:44:57;;;;;;;0.70;0.70;;;5.50;99.90;;;;;;5004402;28;20045;-82
2023/04/02 00:47:42;;;;;;;0.70;0.70;;;5.50;99.90;;;;;;5023659;28;20037;-82
2023/04/02 00:50:10;;;;;;;0.70;0.70;;;5.50;99.90;;;;;;5001784;28;20064;-82
2023/04/02 00:52:37;;;;;;;0.70;0.70;;;5.50;99.90;;;;;;5000483;28;20067;-83
2023/04/02 00:55:18;;;;;;;0.70;0.70;;;5.40;99.90;;;;;;5003292;28;20485;-83
2023/04/02 00:57:44;;;;;;;0.70;0.70;;;5.40;99.90;;;;;;5020590;28;20053;-84
2023/04/02 01:00:21;;;;;;;0.70;0.70;;;5.30;99.90;;;;;;5002117;28;20049;-82
2023/04/02 01:03:15;;;;;;;0.63;0.63;;;5.20;99.90;;;;;;4999095;28;20041;-83
2023/04/02 01:05:43;;;;;;;0.70;0.70;;;5.20;99.90;;;;;;5007355;28;20037;-83
2023/04/02 01:08:32;;;;;;;0.85;0.85;;;5.10;99.90;;;;;;5001086;28;20128;-82
2023/04/02 01:11:25;;;;;;;0.70;0.70;;;5.00;99.90;;;;;;5003168;28;20512;-83
2023/04/02 01:13:51;;;;;;;0.70;0.70;;;4.90;99.90;;;;;;5019224;28;20097;-83
2023/04/02 01:16:41;;;;;;;0.70;0.70;;;5.00;99.90;;;;;;5006585;28;20477;-83
2023/04/02 01:19:51;;;;;;;0.70;0.70;;;4.80;99.90;;;;;;4984024;28;20564;-84
2023/04/02 01:22:29;;;;;;;0.80;0.80;;;4.90;99.90;;;;;;5000620;28;20053;-83
2023/04/02 01:24:58;;;;;;;0.80;0.80;;;4.90;99.90;;;;;;5020785;28;20048;-82
2023/04/02 01:27:31;;;;;;;0.73;0.73;;;4.80;99.90;;;;;;4985039;28;20068;-82
2023/04/02 01:29:59;;;;;;;0.70;0.70;;;4.80;99.90;;;;;;5005436;28;20437;-83
2023/04/02 01:32:27;;;;;;;0.77;0.77;;;4.70;99.90;;;;;;5001358;28;20456;-84
2023/04/02 01:34:55;;;;;;;0.70;0.70;;;4.70;99.90;;;;;;5004263;28;20041;-83
2023/04/02 01:37:43;;;;;;;0.70;0.70;;;4.70;99.90;;;;;;5011595;28;20065;-82
2023/04/02 01:40:34;;;;;;;0.77;0.77;;;4.70;99.90;;;;;;5000752;28;20049;-82
2023/04/02 01:43:04;;;;;;;0.70;0.70;;;4.50;99.90;;;;;;5018935;28;20067;-82
2023/04/02 01:45:33;;;;;;;0.70;0.70;;;4.60;99.90;;;;;;5002129;28;20482;-82
2023/04/02 01:48:12;;;;;;;0.70;0.70;;;4.60;99.90;;;;;;5005918;28;20102;-83
2023/04/02 01:50:40;;;;;;;0.70;0.70;;;4.50;99.90;;;;;;5017630;28;20045;-82
2023/04/02 01:53:10;;;;;;;0.68;0.68;;;4.60;99.90;;;;;;5001546;28;20507;-83
2023/04/02 01:55:44;;;;;;;0.70;0.70;;;4.50;99.90;;;;;;4999761;28;20048;-82
2023/04/02 01:58:13;;;;;;;0.70;0.70;;;4.40;99.90;;;;;;5000262;28;20501;-82
2023/04/02 02:01:11;;;;;;;0.70;0.70;;;4.30;99.90;;;;;;5019153;28;22674;-82
2023/04/02 02:03:39;;;;;;;0.70;0.70;;;4.20;99.90;;;;;;5000082;28;20158;-82
2023/04/02 02:06:05;;;;;;;0.80;0.80;;;4.20;99.90;;;;;;5000754;28;20278;-82
2023/04/02 02:08:43;;;;;;;0.80;0.80;;;4.10;99.90;;;;;;5001205;28;20044;-82
2023/04/02 02:11:15;;;;;;;0.70;0.70;;;4.20;99.90;;;;;;5004734;28;20055;-82
2023/04/02 02:13:46;;;;;;;0.70;0.70;;;4.10;99.90;;;;;;5019374;28;20029;-82
2023/04/02 02:16:16;;;;;;;0.70;0.70;;;4.10;99.90;;;;;;5005306;28;21001;-82
2023/04/02 02:18:47;;;;;;;0.75;0.75;;;4.00;99.90;;;;;;4998697;28;20045;-82
2023/04/02 02:21:38;;;;;;;0.80;0.80;;;4.00;99.90;;;;;;5002434;28;20083;-82
2023/04/02 02:24:10;;;;;;;0.70;0.70;;;3.90;99.90;;;;;;4984431;28;20045;-82
2023/04/02 02:26:37;;;;;;;0.75;0.75;;;3.80;99.90;;;;;;5003234;28;20057;-82
2023/04/02 02:29:06;;;;;;;0.70;0.70;;;3.80;99.90;;;;;;4998884;28;20118;-82
2023/04/02 02:31:34;;;;;;;0.70;0.70;;;3.80;99.90;;;;;;4981898;28;20041;-82
2023/04/02 02:34:07;;;;;;;0.70;0.70;;;3.70;99.90;;;;;;5002151;28;20512;-82
2023/04/02 02:36:50;;;;;;;0.70;0.70;;;3.70;99.90;;;;;;5005774;28;20577;-82
2023/04/02 02:39:23;;;;;;;0.75;0.75;;;3.70;99.90;;;;;;5004410;28;20167;-82
2023/04/02 02:41:59;;;;;;;0.80;0.80;;;3.60;99.90;;;;;;5002769;28;20115;-81
2023/04/02 02:44:30;;;;;;;0.80;0.80;;;3.60;99.90;;;;;;4988799;28;20057;-83
2023/04/02 02:47:01;;;;;;;0.75;0.75;;;3.40;99.90;;;;;;5000534;28;20041;-83
2023/04/02 02:49:31;;;;;;;0.80;0.80;;;3.40;99.90;;;;;;5002312;28;20132;-81
2023/04/02 02:52:11;;;;;;;0.75;0.75;;;3.30;99.90;;;;;;4993962;28;20856;-82
2023/04/02 02:54:42;;;;;;;0.80;0.80;;;3.20;99.90;;;;;;4997130;28;20099;-82
2023/04/02 02:57:12;;;;;;;0.80;0.80;;;3.20;99.90;;;;;;5004966;28;20045;-82
2023/04/02 02:59:38;;;;;;;0.73;0.73;;;3.10;99.90;;;;;;4995372;28;20061;-81
2023/04/02 03:02:05;;;;;;;0.80;0.80;;;3.20;99.90;;;;;;5000639;28;20037;-82
2023/04/02 03:04:34;;;;;;;0.70;0.70;;;3.10;99.90;;;;;;5020324;28;20120;-82
2023/04/02 03:07:02;;;;;;;0.70;0.70;;;3.10;99.90;;;;;;5005414;28;20067;-82
2023/04/02 03:09:53;;;;;;;0.70;0.70;;;3.00;99.90;;;;;;5005527;28;20083;-82
2023/04/02 03:12:27;;;;;;;0.80;0.80;;;3.10;99.90;;;;;;5002803;28;20094;-82
2023/04/02 03:15:07;;;;;;;0.70;0.70;;;3.00;99.90;;;;;;5001910;28;20148;-82
2023/04/02 03:17:47;;;;;;;0.80;0.80;;;2.90;99.90;;;;;;5002022;28;20085;-82
2023/04/02 03:20:21;;;;;;;0.90;0.90;;;2.70;99.90;;;;;;5004088;28;20056;-82
2023/04/02 03:23:15;;;;;;;0.90;0.90;;;2.70;99.90;;;;;;5002942;28;20430;-82
2023/04/02 03:26:06;;;;;;;0.90;0.90;;;2.60;99.90;;;;;;5012121;28;20037;-82
2023/04/02 03:28:38;;;;;;;0.80;0.80;;;2.60;99.90;;;;;;5018313;28;20033;-81
2023/04/02 03:31:29;;;;;;;0.80;0.80;;;2.50;99.90;;;;;;5027828;28;20045;-81
2023/04/02 03:34:04;;;;;;;0.80;0.80;;;2.50;99.90;;;;;;5019397;28;20052;-81
2023/04/02 03:37:01;;;;;;;0.80;0.80;;;2.50;99.90;;;;;;5036255;28;20107;-81
2023/04/02 03:39:30;;;;;;;0.70;0.70;;;2.50;99.90;;;;;;4992590;28;20080;-81
2023/04/02 03:42:08;;;;;;;0.80;0.80;;;2.40;99.90;;;;;;5021297;28;20049;-81
2023/04/02 03:44:42;;;;;;;0.73;0.73;;;2.40;99.90;;;;;;5022459;28;20615;-82
2023/04/02 03:47:27;;;;;;;0.80;0.80;;;2.40;99.90;;;;;;5040809;28;20048;-81
2023/04/02 03:49:59;;;;;;;0.70;0.70;;;2.30;99.90;;;;;;5027729;28;20041;-82
2023/04/02 03:52:27;;;;;;;0.80;0.80;;;2.40;99.90;;;;;;5021592;28;20053;-82
2023/04/02 03:54:58;;;;;;;0.80;0.80;;;2.40;99.90;;;;;;5021879;28;20855;-82
2023/04/02 03:57:51;;;;;;;1.60;1.50;;;2.40;99.90;;;;;;5019128;28;20565;-81
2023/04/02 04:00:26;;;;;;;0.80;0.80;;;2.50;99.90;;;;;;5038708;28;20040;-82
2023/04/02 04:03:01;;;;;;;0.80;0.80;;;2.40;99.90;;;;;;5039940;28;20041;-81
2023/04/02 04:05:34;;;;;;;0.90;0.90;;;2.50;99.90;;;;;;5022181;28;20066;-81
2023/04/02 04:08:05;;;;;;;0.73;0.73;;;2.40;99.90;;;;;;5022705;28;20060;-82
2023/04/02 04:10:32;;;;;;;0.80;0.80;;;2.50;99.90;;;;;;5020132;28;20037;-81
2023/04/02 04:13:21;;;;;;;0.80;0.80;;;2.60;99.90;;;;;;5025731;28;20598;-82
2023/04/02 04:15:50;;;;;;;0.90;0.90;;;2.50;99.90;;;;;;5022416;28;20053;-81
2023/04/02 04:18:33;;;;;;;0.90;0.90;;;2.50;99.90;;;;;;5017066;28;20045;-82
2023/04/02 04:21:28;;;;;;;0.80;0.80;;;2.50;99.90;;;;;;5018433;28;20057;-82
2023/04/02 04:23:56;;;;;;;0.80;0.80;;;2.60;99.90;;;;;;5020140;28;20815;-81
2023/04/02 04:26:53;;;;;;;0.80;0.80;;;2.60;99.90;;;;;;5020690;28;20131;-81
2023/04/02 04:29:36;;;;;;;0.90;0.90;;;2.60;99.90;;;;;;5019355;28;20202;-81
2023/04/02 04:32:26;;;;;;;0.70;0.70;;;2.60;99.90;;;;;;5020062;28;20521;-82
2023/04/02 04:35:13;;;;;;;0.80;0.80;;;2.60;99.90;;;;;;5022734;28;20081;-81
2023/04/02 04:37:42;;;;;;;0.70;0.70;;;2.60;99.90;;;;;;5017843;28;20045;-81
2023/04/02 04:40:16;;;;;;;0.88;0.88;;;2.60;99.90;;;;;;5020863;28;21462;-82
2023/04/02 04:42:43;;;;;;;0.80;0.80;;;2.60;99.90;;;;;;5038423;28;20397;-82
2023/04/02 04:45:24;;;;;;;0.77;0.77;;;2.50;99.90;;;;;;5017839;28;20056;-81
2023/04/02 04:48:06;;;;;;;0.90;0.90;;;2.50;99.90;;;;;;5031101;28;20401;-81
2023/04/02 04:51:01;;;;;;;0.80;0.80;;;2.50;99.90;;;;;;5018806;28;20071;-82
2023/04/02 04:53:28;;;;;;;0.80;0.80;;;2.50;99.90;;;;;;5021056;28;20041;-82
2023/04/02 04:55:58;;;;;;;0.90;0.90;;;2.50;99.90;;;;;;5019733;28;20045;-81
2023/04/02 04:58:50;;;;;;;0.80;0.80;;;2.50;99.90;;;;;;5036357;28;20048;-81
2023/04/02 05:01:42;;;;;;;0.80;0.80;;;2.50;99.90;;;;;;5017654;28;20051;-82
2023/04/02 05:04:15;;;;;;;0.80;0.80;;;2.50;99.90;;;;;;5018646;28;20053;-82
2023/04/02 05:06:56;;;;;;;0.90;0.90;;;2.50;99.90;;;;;;5019651;28;20060;-81
2023/04/02 05:09:34;;;;;;;0.80;0.80;;;2.50;99.90;;;;;;5022789;28;20127;-82
2023/04/02 05:12:11;;;;;;;0.80;0.80;;;2.40;99.90;;;;;;5014176;28;20620;-81
2023/04/02 05:14:43;;;;;;;0.80;0.80;;;2.40;99.90;;;;;;5028850;28;20060;-81
2023/04/02 05:17:32;;;;;;;0.80;0.80;;;2.40;99.90;;;;;;5037602;28;20037;-82
2023/04/02 05:20:44;;;;;;;0.80;0.80;;;2.40;99.90;;;;;;5020755;28;20130;-82
2023/04/02 05:23:16;;;;;;;0.80;0.80;;;2.40;99.90;;;;;;4966815;28;20063;-82
2023/04/02 05:26:05;;;;;;;0.90;0.90;;;2.40;99.90;;;;;;5017652;28;20077;-81
2023/04/02 05:28:43;;;;;;;0.70;0.70;;;2.40;99.90;;;;;;5021721;28;20099;-81
2023/04/02 05:31:16;;;;;;;0.77;0.77;;;2.40;99.90;;;;;;5020052;28;20037;-81
2023/04/02 05:33:46;;;;;;;0.80;0.80;;;2.40;99.90;;;;;;5021804;28;20037;-81
2023/04/02 05:36:19;;;;;;;0.80;0.80;;;2.40;99.90;;;;;;5017734;28;20052;-81
2023/04/02 05:38:47;;;;;;;0.80;0.80;;;2.40;99.90;;;;;;5019295;28;20076;-82
2023/04/02 05:41:35;;;;;;;0.80;0.80;;;2.40;99.90;;;;;;5018286;28;20135;-81
2023/04/02 05:44:26;;;;;;;0.70;0.70;;;2.40;99.90;;;;;;5012505;28;20037;-82
2023/04/02 05:47:04;;;;;;;0.82;0.82;;;2.40;99.90;;;;;;5014340;28;20037;-83
2023/04/02 05:49:42;;;;;;;0.80;0.80;;;2.50;99.90;;;;;;5003247;28;20049;-82
2023/04/02 05:52:19;;;;;;;0.70;0.70;;;2.50;99.90;;;;;;5019842;28;20493;-81
2023/04/02 05:55:25;;;;;;;0.80;0.80;;;2.50;99.90;;;;;;5019377;28;20146;-83
2023/04/02 05:57:58;;;;;;;0.73;0.73;;;2.60;99.90;;;;;;5020906;28;20048;-82
2023/04/02 06:00:46;;;;;;;0.80;0.80;;;2.50;99.90;;;;;;5016836;28;20057;-80
2023/04/02 06:03:44;;;;;;;0.80;0.80;;;2.50;99.90;;;;;;5036561;28;20057;-81
2023/04/02 06:06:17;;;;;;;0.70;0.70;;;2.60;99.90;;;;;;5029072;28;20044;-82
2023/04/02 06:08:56;;;;;;;0.90;0.90;;;2.70;99.90;;;;;;5019792;28;20398;-81
2023/04/02 06:11:41;;;;;;;0.80;0.80;;;2.70;99.90;;;;;;5018119;28;20081;-81
2023/04/02 06:14:10;;;;;;;0.70;0.70;;;2.70;99.90;;;;;;5021168;28;20493;-82
2023/04/02 06:16:37;;;;;;;0.70;0.70;;;2.80;99.90;;;;;;5016398;28;20048;-81
2023/04/02 06:19:10;;;;;;;0.80;0.80;;;2.70;99.90;;;;;;5019101;28;20501;-81
2023/04/02 06:21:48;;;;;;;0.82;0.82;;;2.80;99.90;;;;;;5019225;28;20053;-81
2023/04/02 06:24:18;;;;;;;0.80;0.80;;;2.80;99.90;;;;;;5016997;28;20044;-80
2023/04/02 06:26:55;;;;;;;0.70;0.70;;;2.80;99.90;;;;;;5033363;28;20043;-80
2023/04/02 06:29:38;;;;;;;0.80;0.80;;;2.80;99.90;;;;;;5019116;28;20052;-83
2023/04/02 06:32:07;;;;;;;0.70;0.70;;;2.90;99.90;;;;;;5017819;28;20037;-81
2023/04/02 06:34:36;;;;;;;0.70;0.70;;;2.90;99.90;;;;;;5019361;28;20088;-81
2023/04/02 06:37:35;;;;;;;0.70;0.70;;;3.00;99.90;;;;;;5014849;28;20734;-81
2023/04/02 06:40:04;;;;;;;0.80;0.80;;;3.00;99.90;;;;;;5017635;28;20402;-82
2023/04/02 06:42:34;;;;;;;0.75;0.75;;;3.00;99.90;;;;;;5004967;28;20057;-81
2023/04/02 06:45:00;;;;;;;0.70;0.70;;;3.00;99.90;;;;;;5016385;28;20045;-81
2023/04/02 06:47:37;;;;;;;0.80;0.80;;;3.20;99.90;;;;;;5019392;28;20049;-82
2023/04/02 06:50:13;;;;;;;0.80;0.80;;;3.20;99.90;;;;;;5018983;28;20087;-79
2023/04/02 06:52:46;;;;;;;0.80;0.80;;;3.20;99.90;;;;;;5019965;28;20140;-81
2023/04/02 06:55:36;;;;;;;2.35;2.25;;;3.10;99.90;;;;;;5017766;28;20068;-81
2023/04/02 06:58:02;;;;;;;0.70;0.70;;;3.00;99.90;;;;;;5013677;28;20158;-82
2023/04/02 07:00:44;;;;;;;0.77;0.77;;;3.20;99.90;;;;;;5019489;28;20139;-81
2023/04/02 07:03:19;;;;;;;0.80;0.80;;;3.20;99.90;;;;;;5003839;28;20045;-82
2023/04/02 07:05:45;;;;;;;0.90;0.90;;;3.20;99.90;;;;;;5033377;28;20118;-80
2023/04/02 07:08:11;;;;;;;0.77;0.77;;;3.40;99.90;;;;;;5013485;28;20041;-81
2023/04/02 07:10:36;;;;;;;0.75;0.75;;;3.80;99.90;;;;;;5004414;28;20052;-81
2023/04/02 07:13:03;;;;;;;0.90;0.90;;;3.60;99.90;;;;;;5024559;28;20099;-81
2023/04/02 07:15:28;;;;;;;0.80;0.80;;;3.60;99.90;;;;;;4993252;28;20147;-82
2023/04/02 07:17:58;;;;;;;0.80;0.80;;;3.50;99.90;;;;;;5012692;28;20045;-81
2023/04/02 07:20:37;;;;;;;0.75;0.75;;;3.60;99.90;;;;;;5040429;28;20045;-81
2023/04/02 07:23:03;;;;;;;0.80;0.80;;;3.30;99.90;;;;;;5031546;28;20044;-82
2023/04/02 07:25:29;;;;;;;0.70;0.70;;;3.30;99.90;;;;;;5021050;28;20040;-81
2023/04/02 07:27:56;;;;;;;0.70;0.70;;;3.30;99.90;;;;;;5024152;28;20048;-82
2023/04/02 07:30:22;;;;;;;0.88;0.88;;;3.50;99.90;;;;;;4995256;28;20220;-82
2023/04/02 07:32:48;;;;;;;0.80;0.80;;;4.10;99.90;;;;;;5029209;28;20454;-82
2023/04/02 07:35:13;;;;;;;0.70;0.70;;;4.40;99.90;;;;;;5020565;28;20080;-81
2023/04/02 07:37:39;;;;;;;0.77;0.77;;;4.60;99.90;;;;;;5019714;28;20124;-79
2023/04/02 07:40:10;;;;;;;0.70;0.70;;;4.50;99.90;;;;;;5022249;28;20049;-81
2023/04/02 07:42:36;;;;;;;0.80;0.80;;;4.30;99.90;;;;;;5021672;28;20056;-81
2023/04/02 07:45:02;;;;;;;0.70;0.70;;;4.10;99.90;;;;;;5025985;28;20037;-81
2023/04/02 07:47:28;;;;;;;0.70;0.70;;;4.40;99.90;;;;;;5016624;28;20481;-80
2023/04/02 07:49:54;;;;;;;0.70;0.70;;;4.40;99.90;;;;;;5005968;28;20041;-80
2023/04/02 07:52:20;;;;;;;0.70;0.70;;;4.60;99.90;;;;;;5003804;28;20046;-81
2023/04/02 07:54:46;;;;;;;0.70;0.70;;;4.60;99.90;;;;;;5021368;28;20490;-82
2023/04/02 07:57:12;;;;;;;0.63;0.63;;;4.80;99.90;;;;;;5022439;28;20036;-81
2023/04/02 07:59:37;;;;;;;0.70;0.70;;;5.30;99.90;;;;;;5038411;28;20044;-81
2023/04/02 08:02:03;;;;;;;0.70;0.70;;;5.60;99.90;;;;;;5019772;28;20111;-81
2023/04/02 08:04:29;;;;;;;0.70;0.70;;;5.20;99.90;;;;;;5016351;28;20489;-82
2023/04/02 08:06:55;;;;;;;0.60;0.60;;;4.50;99.90;;;;;;5021234;28;20106;-81
2023/04/02 08:09:20;;;;;;;0.70;0.70;;;4.50;99.90;;;;;;5017162;28;20049;-81
2023/04/02 08:11:46;;;;;;;0.60;0.60;;;4.20;99.90;;;;;;5036080;28;20048;-81
2023/04/02 08:14:12;;;;;;;0.60;0.60;;;4.30;99.90;;;;;;5022021;28;20045;-82
2023/04/02 08:16:52;;;;;;;0.70;0.70;;;5.10;99.90;;;;;;5019249;28;20493;-81
2023/04/02 08:19:19;;;;;;;0.70;0.70;;;4.60;99.90;;;;;;5022855;28;20159;-82
2023/04/02 08:21:46;;;;;;;0.70;0.70;;;4.30;99.90;;;;;;5020094;28;20049;-81
2023/04/02 08:24:12;;;;;;;0.70;0.70;;;4.00;99.90;;;;;;5019753;28;20099;-80
2023/04/02 08:26:38;;;;;;;0.60;0.60;;;4.20;99.90;;;;;;5021042;28;20033;-82
2023/04/02 08:29:03;;;;;;;0.60;0.60;;;4.40;99.90;;;;;;5005722;28;20055;-81
2023/04/02 08:31:29;;;;;;;0.70;0.70;;;4.90;99.90;;;;;;5021440;28;20047;-81
2023/04/02 08:33:55;;;;;;;0.70;0.70;;;4.80;99.90;;;;;;5020652;28;20141;-81
2023/04/02 08:36:28;;;;;;;0.70;0.70;;;4.80;99.90;;;;;;5022013;28;20040;-81
2023/04/02 08:38:54;;;;;;;0.70;0.70;;;4.70;99.90;;;;;;5021734;28;20059;-82
2023/04/02 08:41:29;;;;;;;0.70;0.70;;;4.40;99.90;;;;;;5023234;28;22145;-80
2023/04/02 08:44:07;;;;;;;0.60;0.60;;;4.30;99.90;;;;;;5017165;28;20052;-81
2023/04/02 08:46:55;;;;;;;0.70;0.70;;;4.40;99.90;;;;;;5021781;28;20401;-80
2023/04/02 08:49:47;;;;;;;0.70;0.70;;;4.70;99.90;;;;;;5025483;28;20053;-82
2023/04/02 08:52:42;;;;;;;0.60;0.60;;;4.60;99.90;;;;;;5037531;28;20094;-81
2023/04/02 08:55:18;;;;;;;0.70;0.70;;;5.10;99.90;;;;;;5022622;28;20056;-81
2023/04/02 08:58:26;;;;;;;0.60;0.60;;;5.30;99.90;;;;;;5029244;28;20167;-80
2023/04/02 09:00:59;;;;;;;0.65;0.65;;;5.70;99.90;;;;;;5003935;28;20738;-81
2023/04/02 09:03:30;;;;;;;0.70;0.70;;;5.80;99.90;;;;;;5021989;28;20128;-81
2023/04/02 09:05:59;;;;;;;0.70;0.70;;;5.80;99.90;;;;;;5019073;28;20041;-82
2023/04/02 09:08:26;;;;;;;0.70;0.70;;;6.10;99.90;;;;;;5004277;28;20861;-82
2023/04/02 09:11:01;;;;;;;0.70;0.70;;;5.70;99.90;;;;;;5023144;28;20049;-82
2023/04/02 09:13:29;;;;;;;0.65;0.65;;;5.40;99.90;;;;;;5002085;28;20047;-81
2023/04/02 09:16:15;;;;;;;0.60;0.60;;;5.70;99.90;;;;;;5018464;28;20297;-81
2023/04/02 09:18:43;;;;;;;0.60;0.60;;;5.60;99.90;;;;;;5019500;28;20508;-81
2023/04/02 09:21:21;;;;;;;0.60;0.60;;;5.80;99.90;;;;;;5021951;28;20127;-84
2023/04/02 09:23:48;;;;;;;0.63;0.63;;;6.10;99.90;;;;;;5035571;28;20164;-82
2023/04/02 09:26:22;;;;;;;0.60;0.60;;;6.00;99.90;;;;;;5015400;28;20037;-81
2023/04/02 09:28:51;;;;;;;0.70;0.70;;;6.80;99.90;;;;;;5029386;28;20438;-80
2023/04/02 09:31:28;;;;;;;0.60;0.60;;;6.50;99.90;;;;;;5037135;28;20044;-80
2023/04/02 09:33:53;;;;;;;0.60;0.60;;;6.90;99.90;;;;;;5019545;28;20183;-82
2023/04/02 09:36:52;;;;;;;0.70;0.70;;;6.90;99.90;;;;;;5028997;28;20108;-81
2023/04/02 09:39:20;;;;;;;0.60;0.60;;;7.30;99.90;;;;;;4997195;28;20576;-81
2023/04/02 09:41:46;;;;;;;0.60;0.60;;;6.80;99.90;;;;;;5016590;28;20085;-82
2023/04/02 09:44:12;;;;;;;0.60;0.60;;;7.20;99.90;;;;;;5016165;28;20561;-81
2023/04/02 09:46:48;;;;;;;0.63;0.63;;;7.60;99.90;;;;;;5016983;28;20037;-80
2023/04/02 09:49:16;;;;;;;0.60;0.60;;;8.30;99.90;;;;;;5017457;28;20049;-78
2023/04/02 09:52:07;;;;;;;0.60;0.60;;;8.00;99.90;;;;;;5018305;28;20136;-81
2023/04/02 09:54:40;;;;;;;0.60;0.60;;;7.70;99.90;;;;;;5017480;28;20056;-81
2023/04/02 09:57:23;;;;;;;0.60;0.60;;;7.90;99.90;;;;;;5014642;28;20048;-81
2023/04/02 10:00:15;;;;;;;0.60;0.60;;;7.20;99.90;;;;;;5030656;28;20048;-81
2023/04/02 10:02:42;;;;;;;0.60;0.60;;;7.40;99.90;;;;;;5024811;28;20053;-81
2023/04/02 10:05:21;;;;;;;0.55;0.55;;;7.70;99.90;;;;;;5005658;28;20179;-80
2023/04/02 10:07:52;;;;;;;0.60;0.60;;;7.80;99.90;;;;;;5002957;28;20045;-81
2023/04/02 10:10:36;;;;;;;0.60;0.60;;;8.10;99.90;;;;;;5023651;28;20076;-81
2023/04/02 10:13:20;;;;;;;0.60;0.60;;;7.30;99.90;;;;;;5009272;28;20036;-82
2023/04/02 10:15:51;;;;;;;0.60;0.60;;;8.10;99.90;;;;;;5007274;28;20103;-82
2023/04/02 10:18:42;;;;;;;0.60;0.60;;;8.50;99.90;;;;;;4993575;28;20041;-81
2023/04/02 10:21:12;;;;;;;0.60;0.60;;;8.40;99.90;;;;;;5023590;28;20168;-82
2023/04/02 10:23:38;;;;;;;0.60;0.60;;;8.20;99.90;;;;;;5002687;28;20129;-80
2023/04/02 10:26:30;;;;;;;0.60;0.60;;;8.40;99.90;;;;;;4999652;28;20600;-80
2023/04/02 10:29:07;;;;;;;0.60;0.60;;;8.60;99.90;;;;;;5030144;28;20025;-81
2023/04/02 10:31:54;;;;;;;0.50;0.50;;;8.60;99.90;;;;;;5014424;28;20106;-82
2023/04/02 10:34:31;;;;;;;0.60;0.60;;;9.10;99.90;;;;;;5033352;28;20045;-81
2023/04/02 10:37:08;;;;;;;0.60;0.60;;;8.20;99.90;;;;;;5015799;28;20059;-81
2023/04/02 10:39:41;;;;;;;0.60;0.60;;;9.10;99.90;;;;;;5014013;28;20045;-81
2023/04/02 10:42:30;;;;;;;0.60;0.60;;;8.50;99.90;;;;;;5011504;28;20047;-81
2023/04/02 10:45:33;;;;;;;0.60;0.60;;;9.10;99.90;;;;;;5019633;28;20125;-81
2023/04/02 10:48:23;;;;;;;0.60;0.60;;;9.20;99.90;;;;;;4999436;28;20049;-81
2023/04/02 10:51:02;;;;;;;0.60;0.60;;;8.40;99.90;;;;;;5016651;28;20037;-81
2023/04/02 10:53:44;;;;;;;0.50;0.50;;;8.50;99.90;;;;;;5000793;28;20045;-81
2023/04/02 10:56:12;;;;;;;0.60;0.60;;;9.00;99.90;;;;;;5000046;28;20049;-80
2023/04/02 10:58:58;;;;;;;0.60;0.60;;;8.50;99.90;;;;;;5019482;28;20531;-81
2023/04/02 11:01:29;;;;;;;0.60;0.60;;;8.40;99.90;;;;;;5029810;28;20051;-80
2023/04/02 11:04:17;;;;;;;0.60;0.60;;;9.10;99.90;;;;;;5032751;28;20053;-82
2023/04/02 11:06:52;;;;;;;0.60;0.60;;;9.40;99.90;;;;;;5014613;28;20115;-81
2023/04/02 11:09:23;;;;;;;0.60;0.60;;;9.10;99.90;;;;;;5032037;28;20045;-81
2023/04/02 11:11:56;;;;;;;0.60;0.60;;;8.50;99.90;;;;;;5019022;28;20115;-81
2023/04/02 11:14:28;;;;;;;0.50;0.50;;;8.90;99.90;;;;;;5016308;28;20115;-80
2023/04/02 11:16:57;;;;;;;0.50;0.50;;;8.50;99.90;;;;;;5000410;28;20044;-81
2023/04/02 11:19:27;;;;;;;0.60;0.60;;;8.40;99.90;;;;;;5033957;28;20098;-80
2023/04/02 11:22:20;;;;;;;0.60;0.60;;;8.90;99.90;;;;;;5036495;28;20044;-80
2023/04/02 11:24:48;;;;;;;0.60;0.60;;;8.60;99.90;;;;;;5031505;28;20051;-81
2023/04/02 11:27:29;;;;;;;0.60;0.60;;;9.00;99.90;;;;;;5015115;28;20060;-80
2023/04/02 11:30:06;;;;;;;0.60;0.60;;;9.50;99.90;;;;;;5013181;28;20049;-79
2023/04/02 11:32:41;;;;;;;0.60;0.60;;;9.20;99.90;;;;;;5020016;28;20045;-81
2023/04/02 11:35:31;;;;;;;0.60;0.60;;;9.40;99.90;;;;;;5019581;28;20951;-81
2023/04/02 11:38:21;;;;;;;0.60;0.60;;;9.60;99.90;;;;;;5007472;28;20762;-81
2023/04/02 11:40:48;;;;;;;0.60;0.60;;;9.00;99.90;;;;;;4989462;28;20340;-81
2023/04/02 11:43:32;;;;;;;0.60;0.60;;;9.10;99.90;;;;;;5018125;28;20605;-82
2023/04/02 11:46:01;;;;;;;;;;;8.80;99.90;;;;;;5017093;28;20045;-82
2023/04/02 11:48:35;;;;;;;0.60;0.60;;;9.20;99.90;;;;;;5008370;28;19920;-81
2023/04/02 11:51:19;;;;;;;0.60;0.60;;;9.80;99.90;;;;;;4993167;28;20053;-81
2023/04/02 11:53:46;;;;;;;0.60;0.60;;;9.70;99.90;;;;;;4993085;28;20053;-80
2023/04/02 11:56:27;;;;;;;0.60;0.60;;;9.40;99.90;;;;;;4998055;28;20060;-81
2023/04/02 11:59:14;;;;;;;0.60;0.60;;;9.40;99.90;;;;;;5002882;28;20595;-81
2023/04/02 12:01:55;;;;;;;0.60;0.60;;;9.70;99.90;;;;;;5020877;28;20052;-81
2023/04/02 12:05:02;;;;;;;0.60;0.60;;;9.50;99.90;;;;;;4999043;28;20129;-81
2023/04/02 12:07:37;;;;;;;0.60;0.60;;;9.80;99.90;;;;;;4998582;28;20115;-81
2023/04/02 12:10:27;;;;;;;0.60;0.60;;;9.60;99.90;;;;;;5002974;28;20045;-81
2023/04/02 12:12:52;;;;;;;0.60;0.60;;;10.00;99.90;;;;;;5002502;28;20130;-84
2023/04/02 12:15:27;;;;;;;0.60;0.60;;;9.80;99.90;;;;;;5021489;28;20131;-81
2023/04/02 12:18:04;;;;;;;0.60;0.60;;;9.90;99.90;;;;;;5017684;28;20052;-80
2023/04/02 12:20:30;;;;;;;0.60;0.60;;;10.00;99.90;;;;;;5004278;28;20056;-82
2023/04/02 12:22:57;;;;;;;0.60;0.60;;;10.50;99.90;;;;;;5024163;28;20060;-82
2023/04/02 12:25:30;;;;;;;0.50;0.50;;;10.00;99.90;;;;;;5018580;28;22143;-81
2023/04/02 12:28:05;;;;;;;0.50;0.50;;;10.40;99.90;;;;;;4996475;28;20132;-81
2023/04/02 12:30:31;;;;;;;0.50;0.50;;;10.10;99.90;;;;;;5008950;28;20041;-82
2023/04/02 12:33:36;;;;;;;0.60;0.60;;;10.00;99.90;;;;;;4994953;28;20114;-81
2023/04/02 12:36:03;;;;;;;0.50;0.50;;;10.40;99.90;;;;;;4999761;28;20108;-82
2023/04/02 12:38:36;;;;;;;0.60;0.60;;;10.80;99.90;;;;;;5004820;28;20080;-81
2023/04/02 12:41:26;;;;;;;0.60;0.60;;;10.30;99.90;;;;;;5013394;28;20052;-81
2023/04/02 12:44:11;;;;;;;0.60;0.60;;;9.80;99.90;;;;;;5002479;28;20090;-78
2023/04/02 12:46:38;;;;;;;0.60;0.60;;;9.90;99.90;;;;;;4986200;28;20040;-81
2023/04/02 12:49:26;;;;;;;0.60;0.60;;;10.10;99.90;;;;;;4997340;28;20385;-81
2023/04/02 12:51:53;;;;;;;0.70;0.70;;;10.30;99.90;;;;;;5015425;28;20868;-81
2023/04/02 12:54:19;;;;;;;0.60;0.60;;;9.90;99.90;;;;;;5026718;28;20071;-80
2023/04/02 12:56:47;;;;;;;0.60;0.60;;;10.30;99.90;;;;;;4990345;28;20053;-81
2023/04/02 12:59:35;;;;;;;0.60;0.60;;;10.10;99.90;;;;;;4998927;28;20084;-81
2023/04/02 13:02:15;;;;;;;0.60;0.60;;;10.70;99.90;;;;;;4994938;28;20846;-80
2023/04/02 13:04:48;;;;;;;0.63;0.63;;;10.60;99.90;;;;;;4996087;28;20968;-80
2023/04/02 13:07:17;;;;;;;0.68;0.68;;;10.30;99.90;;;;;;5013593;28;20033;-81
2023/04/02 13:09:49;;;;;;;0.60;0.60;;;10.30;99.90;;;;;;5013200;28;20044;-81
2023/04/02 13:12:38;;;;;;;0.60;0.60;;;10.60;99.90;;;;;;4996804;28;20450;-81
2023/04/02 13:15:22;;;;;;;0.60;0.60;;;10.60;99.90;;;;;;5003353;28;20091;-80
2023/04/02 13:18:12;;;;;;;0.60;0.60;;;10.80;99.90;;;;;;4993689;28;20304;-81
2023/04/02 13:20:40;;;;;;;0.60;0.60;;;10.90;99.90;;;;;;5004062;28;20041;-81
2023/04/02 13:23:26;;;;;;;0.70;0.70;;;11.00;99.90;;;;;;4993598;28;20508;-81
2023/04/02 13:25:52;;;;;;;0.60;0.60;;;10.90;99.90;;;;;;4999298;28;20041;-80
2023/04/02 13:28:18;;;;;;;0.60;0.60;;;10.90;99.90;;;;;;5022074;28;20603;-81
2023/04/02 13:30:45;;;;;;;0.60;0.60;;;10.60;99.90;;;;;;5004572;28;20053;-82
2023/04/02 13:33:11;;;;;;;0.60;0.60;;;11.10;99.90;;;;;;5004886;28;20037;-82
2023/04/02 13:35:37;;;;;;;0.60;0.60;;;10.90;99.90;;;;;;5020825;28;20559;-81
2023/04/02 13:38:04;;;;;;;0.68;0.68;;;10.80;99.90;;;;;;5022328;28;20044;-81
2023/04/02 13:40:32;;;;;;;0.70;0.70;;;10.80;99.90;;;;;;5022575;28;20554;-81